createdAt,value
2023-04-12T00:01:27.698Z,9.80
2023-04-12T00:03:56.320Z,8.60
2023-04-12T00:06:27.775Z,9.00
2023-04-12T00:08:56.224Z,9.40
2023-04-12T00:11:26.185Z,9.70
2023-04-12T00:13:55.069Z,10.00
2023-04-12T00:16:24.803Z,11.60
2023-04-12T00:18:54.296Z,10.30
2023-04-12T00:21:24.073Z,12.00
2023-04-12T00:23:52.394Z,11.00
2023-04-12T00:26:21.822Z,10.30
2023-04-12T00:28:50.561Z,12.10
2023-04-12T00:31:21.321Z,11.60
2023-04-12T00:33:49.564Z,11.40
2023-04-12T00:36:25.464Z,10.30
2023-04-12T00:38:54.187Z,9.50
2023-04-12T00:41:24.271Z,12.60
2023-04-12T00:43:53.167Z,9.20
2023-04-12T00:46:21.409Z,13.20
2023-04-12T00:48:50.912Z,9.00
2023-04-12T00:51:22.458Z,8.60
2023-04-12T00:53:53.099Z,13.90
2023-04-12T00:56:23.828Z,13.80
2023-04-12T00:58:52.501Z,8.30
2023-04-12T01:01:28.330Z,9.60
2023-04-12T01:04:01.567Z,14.20
2023-04-12T01:06:53.985Z,15.70
2023-04-12T01:10:04.147Z,93.40
2023-04-12T01:12:58.618Z,84.80
2023-04-12T01:15:26.852Z,26.30
2023-04-12T01:18:25.303Z,33.90
2023-04-12T01:21:08.727Z,231.60
2023-04-12T01:23:46.455Z,153.00
2023-04-12T01:26:24.165Z,31.70
2023-04-12T01:28:53.746Z,18.10
2023-04-12T01:31:26.217Z,14.50
2023-04-12T01:33:57.604Z,17.20
2023-04-12T01:36:27.467Z,22.60
2023-04-12T01:38:56.104Z,19.60
2023-04-12T01:41:24.408Z,21.90
2023-04-12T01:43:52.558Z,31.80
2023-04-12T01:46:22.834Z,23.90
2023-04-12T01:48:52.432Z,56.50
2023-04-12T01:51:35.238Z,66.30
2023-04-12T01:54:11.915Z,87.20
2023-04-12T01:56:42.033Z,135.30
2023-04-12T01:59:11.549Z,223.90
2023-04-12T02:01:40.145Z,311.40
2023-04-12T02:04:09.044Z,160.20
2023-04-12T02:06:37.899Z,149.90
2023-04-12T02:09:06.693Z,189.20
2023-04-12T02:11:34.932Z,214.90
2023-04-12T02:14:04.176Z,217.30
2023-04-12T02:16:34.532Z,80.40
2023-04-12T02:19:04.115Z,33.30
2023-04-12T02:21:45.728Z,33.10
2023-04-12T02:24:17.355Z,35.10
2023-04-12T02:26:50.234Z,26.60
2023-04-12T02:29:18.911Z,36.50
2023-04-12T02:31:52.568Z,31.80
2023-04-12T02:34:21.615Z,33.10
2023-04-12T02:36:56.567Z,26.10
2023-04-12T02:39:25.115Z,26.60
2023-04-12T02:41:53.501Z,22.00
2023-04-12T02:44:21.901Z,23.70
2023-04-12T02:47:28.702Z,21.60
2023-04-12T02:49:57.472Z,23.10
2023-04-12T02:52:25.660Z,19.70
2023-04-12T02:55:08.095Z,21.20
2023-04-12T02:57:36.931Z,21.90
2023-04-12T03:00:12.264Z,22.10
2023-04-12T03:02:50.009Z,19.70
2023-04-12T03:13:18.124Z,20.20
2023-04-12T03:15:57.469Z,19.20
2023-04-12T03:18:31.848Z,17.80
2023-04-12T03:21:02.469Z,19.70
2023-04-12T03:23:31.970Z,17.40
2023-04-12T03:26:06.790Z,16.20
2023-04-12T03:28:39.161Z,16.80
2023-04-12T03:31:07.862Z,15.60
2023-04-12T03:33:43.916Z,16.40
2023-04-12T03:39:09.125Z,12.90
2023-04-12T03:41:38.526Z,11.90
2023-04-12T03:44:07.757Z,12.60
2023-04-12T03:46:36.978Z,12.70
2023-04-12T03:51:42.831Z,16.90
2023-04-12T03:54:13.111Z,26.90
2023-04-12T03:56:59.032Z,33.90
2023-04-12T03:59:37.761Z,36.60
2023-04-12T04:02:07.181Z,36.30
2023-04-12T04:04:38.013Z,83.30
2023-04-12T04:07:09.748Z,75.10
2023-04-12T04:09:42.393Z,54.00
2023-04-12T04:12:11.329Z,18.40
2023-04-12T04:14:42.610Z,17.30
2023-04-12T04:17:12.731Z,17.70
2023-04-12T04:22:13.974Z,19.00
2023-04-12T04:24:42.802Z,16.60
2023-04-12T04:27:11.646Z,19.20
2023-04-12T04:29:45.486Z,13.10
2023-04-12T04:32:15.934Z,12.80
2023-04-12T04:34:44.937Z,14.10
2023-04-12T04:37:16.294Z,11.30
2023-04-12T04:39:46.717Z,13.10
2023-04-12T04:42:15.955Z,16.70
2023-04-12T04:45:04.989Z,11.50
2023-04-12T04:47:39.090Z,11.00
2023-04-12T04:50:10.784Z,10.70
2023-04-12T04:52:40.994Z,10.40
2023-04-12T04:55:13.049Z,9.10
2023-04-12T04:57:48.216Z,10.00
2023-04-12T05:00:18.357Z,8.30
2023-04-12T05:02:52.124Z,9.50
2023-04-12T05:05:29.159Z,9.40
2023-04-12T05:08:02.472Z,8.30
2023-04-12T05:10:42.341Z,7.80
2023-04-12T05:13:15.039Z,9.00
2023-04-12T05:15:42.980Z,12.00
2023-04-12T05:18:15.900Z,7.50
2023-04-12T05:20:48.477Z,8.20
2023-04-12T05:23:17.424Z,8.70
2023-04-12T05:25:48.456Z,8.60
2023-04-12T05:28:17.590Z,9.60
2023-04-12T05:30:46.561Z,9.80
2023-04-12T05:36:10.919Z,8.80
2023-04-12T05:38:40.308Z,8.30
2023-04-12T05:41:12.971Z,9.60
2023-04-12T05:43:41.597Z,12.90
2023-04-12T05:46:12.105Z,10.90
2023-04-12T05:48:49.795Z,11.00
2023-04-12T05:51:22.988Z,11.90
2023-04-12T05:53:57.887Z,12.70
2023-04-12T05:56:26.925Z,9.40
2023-04-12T05:58:58.569Z,10.40
2023-04-12T06:01:33.048Z,10.10
2023-04-12T06:04:06.041Z,15.40
2023-04-12T06:06:39.255Z,10.10
2023-04-12T06:09:07.621Z,10.90
2023-04-12T06:11:35.792Z,11.00
2023-04-12T06:14:09.081Z,13.10
2023-04-12T06:16:39.999Z,10.70
2023-04-12T06:19:11.196Z,13.20
2023-04-12T06:21:39.239Z,10.50
2023-04-12T06:24:08.005Z,11.80
2023-04-12T06:26:39.785Z,11.50
2023-04-12T06:29:13.050Z,11.00
2023-04-12T06:31:41.567Z,11.00
2023-04-12T06:34:10.073Z,14.70
2023-04-12T06:39:27.387Z,11.10
2023-04-12T06:42:00.610Z,12.00
2023-04-12T06:44:42.491Z,15.00
2023-04-12T06:47:11.053Z,13.30
2023-04-12T06:49:40.678Z,12.10
2023-04-12T06:52:08.600Z,12.60
2023-04-12T06:54:39.105Z,19.70
2023-04-12T06:57:11.858Z,16.90
2023-04-12T06:59:45.675Z,15.80
2023-04-12T07:02:14.957Z,18.90
2023-04-12T07:04:43.827Z,13.50
2023-04-12T07:07:18.449Z,13.20
2023-04-12T07:09:52.283Z,11.90
2023-04-12T07:12:21.117Z,12.60
2023-04-12T07:14:50.358Z,12.60
2023-04-12T07:17:21.394Z,15.40
2023-04-12T07:19:51.121Z,14.10
2023-04-12T07:22:27.124Z,17.30
2023-04-12T07:24:57.821Z,12.50
2023-04-12T07:27:26.478Z,13.50
2023-04-12T07:29:58.656Z,11.30
2023-04-12T07:32:27.528Z,13.40
2023-04-12T07:34:58.056Z,12.50
2023-04-12T07:37:26.666Z,15.90
2023-04-12T07:39:55.186Z,9.40
2023-04-12T07:42:23.747Z,8.80
2023-04-12T07:44:52.048Z,9.10
2023-04-12T07:47:23.071Z,10.70
2023-04-12T07:49:51.461Z,7.10
2023-04-12T07:52:20.086Z,8.60
2023-04-12T07:54:48.197Z,8.90
2023-04-12T07:57:17.071Z,6.50
2023-04-12T07:59:45.347Z,7.30
2023-04-12T08:02:13.933Z,8.30
2023-04-12T08:04:44.466Z,8.10
2023-04-12T08:07:12.846Z,9.00
2023-04-12T08:09:41.750Z,7.30
2023-04-12T08:12:10.349Z,7.90
2023-04-12T08:14:46.483Z,7.20
2023-04-12T08:17:16.716Z,8.90
2023-04-12T08:19:45.128Z,13.40
2023-04-12T08:22:15.649Z,11.40
2023-04-12T08:24:46.430Z,13.20
2023-04-12T08:27:16.592Z,14.70
2023-04-12T08:29:45.101Z,11.00
2023-04-12T08:32:13.282Z,11.90
2023-04-12T08:34:44.137Z,13.00
2023-04-12T08:37:21.579Z,11.10
2023-04-12T08:39:49.864Z,12.80
2023-04-12T08:42:18.333Z,11.10
2023-04-12T08:44:46.630Z,9.60
2023-04-12T08:47:14.752Z,13.10
2023-04-12T08:49:43.522Z,9.80
2023-04-12T08:52:12.316Z,10.00
2023-04-12T08:54:40.538Z,9.40
2023-04-12T08:57:09.224Z,12.30
2023-04-12T08:59:39.016Z,12.70
2023-04-12T09:02:07.098Z,10.20
2023-04-12T09:04:49.990Z,10.10
2023-04-12T09:07:19.002Z,11.30
2023-04-12T09:09:47.613Z,10.60
2023-04-12T09:12:20.555Z,12.70
2023-04-12T09:14:48.988Z,14.50
2023-04-12T09:17:24.332Z,11.40
2023-04-12T09:19:56.100Z,14.20
2023-04-12T09:22:37.003Z,12.70
2023-04-12T09:25:05.988Z,10.60
2023-04-12T09:27:52.423Z,13.10
2023-04-12T09:30:20.647Z,10.30
2023-04-12T09:33:12.986Z,10.20
2023-04-12T09:35:42.999Z,12.50
2023-04-12T09:38:11.422Z,12.10
2023-04-12T09:40:40.641Z,9.90
2023-04-12T09:43:09.679Z,13.00
2023-04-12T09:45:41.237Z,11.10
2023-04-12T09:48:09.433Z,16.70
2023-04-12T09:50:38.032Z,9.90
2023-04-12T09:53:18.671Z,10.30
2023-04-12T09:55:47.753Z,10.60
2023-04-12T09:58:17.845Z,11.40
2023-04-12T10:03:18.730Z,10.10
2023-04-12T10:05:47.552Z,9.20
2023-04-12T10:08:16.450Z,10.40
2023-04-12T10:11:22.312Z,13.00
2023-04-12T10:14:17.860Z,12.50
2023-04-12T10:16:47.220Z,13.40
2023-04-12T10:19:15.392Z,11.60
2023-04-12T10:21:43.568Z,14.50
2023-04-12T10:24:16.724Z,12.90
2023-04-12T10:26:45.720Z,13.80
2023-04-12T10:29:26.869Z,16.00
2023-04-12T10:31:56.097Z,16.10
2023-04-12T10:34:27.638Z,14.90
2023-04-12T10:36:59.988Z,16.70
2023-04-12T10:39:42.568Z,19.90
2023-04-12T10:42:28.289Z,18.70
2023-04-12T10:45:23.055Z,16.40
2023-04-12T10:47:51.719Z,15.30
2023-04-12T10:50:27.534Z,18.40
2023-04-12T10:53:12.409Z,16.20
2023-04-12T10:55:45.557Z,18.70
2023-04-12T10:58:48.778Z,17.80
2023-04-12T11:01:19.017Z,17.10
2023-04-12T11:04:25.354Z,19.10
2023-04-12T11:07:14.091Z,20.90
2023-04-12T11:09:51.626Z,19.30
2023-04-12T11:12:50.889Z,23.30
2023-04-12T11:15:18.953Z,21.90
2023-04-12T11:17:57.957Z,21.00
2023-04-12T11:20:27.618Z,26.30
2023-04-12T11:22:56.053Z,20.40
2023-04-12T11:25:28.913Z,22.30
2023-04-12T11:27:57.296Z,19.60
2023-04-12T11:30:31.029Z,23.20
2023-04-12T11:32:59.407Z,20.60
2023-04-12T11:35:30.408Z,21.40
2023-04-12T11:37:59.230Z,20.60
2023-04-12T11:40:28.665Z,23.50
2023-04-12T11:42:57.891Z,21.00
2023-04-12T11:45:26.771Z,19.00
2023-04-12T11:47:58.217Z,19.00
2023-04-12T11:50:30.765Z,19.30
2023-04-12T11:53:12.156Z,16.40
2023-04-12T11:55:41.127Z,17.50
2023-04-12T11:58:09.202Z,17.80
2023-04-12T12:00:38.239Z,17.80
2023-04-12T12:03:08.517Z,21.50
2023-04-12T12:05:43.083Z,19.70
2023-04-12T12:08:11.283Z,18.20
2023-04-12T12:10:55.525Z,16.40
2023-04-12T12:13:50.171Z,19.60
2023-04-12T12:16:18.727Z,19.50
2023-04-12T12:18:51.065Z,18.80
2023-04-12T12:21:21.759Z,16.20
2023-04-12T12:23:50.275Z,21.90
2023-04-12T12:26:21.196Z,15.50
2023-04-12T12:28:53.511Z,17.20
2023-04-12T12:31:24.309Z,20.20
2023-04-12T12:34:00.286Z,16.20
2023-04-12T12:36:32.876Z,14.30
2023-04-12T12:39:07.835Z,13.90
2023-04-12T12:41:36.385Z,13.80
2023-04-12T12:44:05.341Z,14.90
2023-04-12T12:49:06.207Z,15.50
2023-04-12T12:51:34.716Z,15.10
2023-04-12T12:54:02.968Z,15.70
2023-04-12T12:56:36.745Z,14.10
2023-04-12T12:59:05.062Z,17.80
2023-04-12T13:01:33.271Z,16.90
2023-04-12T13:04:01.627Z,13.50
2023-04-12T13:06:30.101Z,13.90
2023-04-12T13:08:58.513Z,15.50
2023-04-12T13:11:30.028Z,15.10
2023-04-12T13:13:58.792Z,13.50
2023-04-12T13:16:27.301Z,14.30
2023-04-12T13:18:56.431Z,14.30
2023-04-12T13:21:27.217Z,13.70
2023-04-12T13:23:55.458Z,15.90
2023-04-12T13:33:59.351Z,18.20
2023-04-12T13:36:28.449Z,15.40
2023-04-12T13:38:56.901Z,15.10
2023-04-12T13:41:26.414Z,16.30
2023-04-12T13:43:54.850Z,15.90
2023-04-12T13:46:28.492Z,15.80
2023-04-12T13:48:58.110Z,16.40
2023-04-12T13:51:29.062Z,17.40
2023-04-12T13:53:57.076Z,17.20
2023-04-12T13:56:25.781Z,17.10
2023-04-12T13:58:54.137Z,17.70
2023-04-12T14:01:25.182Z,17.00
2023-04-12T14:03:53.659Z,18.80
2023-04-12T14:06:21.949Z,18.20
2023-04-12T14:08:52.535Z,20.50
2023-04-12T14:11:25.206Z,21.80
2023-04-12T14:13:54.621Z,16.00
2023-04-12T14:18:54.404Z,16.00
2023-04-12T14:21:28.347Z,17.80
2023-04-12T14:23:59.419Z,20.50
2023-04-12T14:26:28.021Z,20.40
2023-04-12T14:28:56.386Z,20.40
2023-04-12T14:31:30.238Z,17.50
2023-04-12T14:33:58.834Z,17.10
2023-04-12T14:36:27.800Z,22.20
2023-04-12T14:38:58.660Z,21.20
2023-04-12T14:41:27.171Z,19.60
2023-04-12T14:43:55.248Z,19.00
2023-04-12T14:46:25.702Z,17.50
2023-04-12T14:48:57.255Z,17.80
2023-04-12T14:53:54.921Z,19.90
2023-04-12T14:56:30.546Z,20.60
2023-04-12T14:59:05.854Z,20.40
2023-04-12T15:01:35.031Z,18.30
2023-04-12T15:04:05.563Z,20.60
2023-04-12T15:06:42.733Z,18.20
2023-04-12T15:09:13.702Z,19.10
2023-04-12T15:11:47.103Z,18.20
2023-04-12T15:14:22.242Z,19.60
2023-04-12T15:16:52.221Z,21.00
2023-04-12T15:19:24.447Z,17.60
2023-04-12T15:21:55.261Z,19.10
2023-04-12T15:24:28.102Z,21.40
2023-04-12T15:26:56.840Z,19.70
2023-04-12T15:29:27.755Z,22.40
2023-04-12T15:31:58.469Z,19.00
2023-04-12T15:34:28.665Z,19.90
2023-04-12T15:36:56.685Z,18.80
2023-04-12T17:54:30.981Z,13.30
2023-04-12T17:56:59.698Z,13.80
2023-04-12T17:59:28.534Z,18.10
2023-04-12T18:01:58.300Z,14.90
2023-04-12T18:04:29.025Z,13.00
2023-04-12T18:06:57.321Z,15.40
2023-04-12T18:09:26.640Z,13.20
2023-04-12T18:11:55.510Z,12.60
2023-04-12T18:14:23.910Z,12.00
2023-04-12T18:16:55.136Z,12.20
2023-04-12T18:19:23.160Z,13.70
2023-04-12T18:21:52.104Z,13.30
2023-04-12T18:24:21.232Z,12.30
2023-04-12T18:34:22.936Z,12.80
2023-04-12T18:36:53.810Z,13.30
2023-04-12T18:39:22.313Z,13.50
2023-04-12T18:41:53.097Z,13.30
2023-04-12T18:44:21.345Z,11.80
2023-04-12T18:46:50.057Z,15.80
2023-04-12T18:49:19.742Z,13.10
2023-04-12T18:51:48.077Z,11.70
2023-04-12T18:54:17.601Z,14.80
2023-04-12T18:56:46.138Z,15.40
2023-04-12T18:59:17.839Z,13.40
2023-04-12T19:01:48.383Z,13.50
2023-04-12T19:04:17.743Z,12.30
2023-04-12T19:06:47.281Z,14.20
2023-04-12T19:09:16.065Z,13.00
2023-04-12T19:11:44.220Z,13.70
2023-04-12T19:14:13.085Z,15.20
2023-04-12T19:16:41.320Z,13.60
2023-04-12T19:19:09.602Z,13.50
2023-04-12T19:21:37.834Z,12.60
2023-04-12T19:24:06.584Z,11.60
2023-04-12T19:26:46.139Z,11.70
2023-04-12T19:29:16.898Z,11.50
2023-04-12T19:31:47.568Z,14.50
2023-04-12T19:34:18.093Z,13.30
2023-04-12T19:36:46.231Z,14.20
2023-04-12T19:39:15.585Z,11.60
2023-04-12T19:41:44.289Z,11.80
2023-04-12T19:44:15.600Z,16.60
2023-04-12T19:46:43.992Z,11.80
2023-04-12T19:49:12.168Z,16.10
2023-04-12T19:51:40.604Z,11.50
2023-04-12T19:54:10.016Z,12.70
2023-04-12T19:56:39.417Z,12.80
2023-04-12T19:59:10.922Z,14.10
2023-04-12T20:01:52.599Z,13.90
2023-04-12T20:04:21.943Z,11.80
2023-04-12T20:06:52.261Z,13.30
2023-04-12T20:09:25.388Z,11.70
2023-04-12T20:11:53.952Z,12.30
2023-04-12T20:14:24.427Z,13.60
2023-04-12T20:16:56.955Z,11.80
2023-04-12T20:19:27.190Z,12.10
2023-04-12T20:22:01.764Z,11.10
2023-04-12T20:24:30.140Z,12.00
2023-04-12T20:26:58.651Z,12.30
2023-04-12T20:29:29.192Z,13.30
2023-04-12T20:31:57.814Z,14.30
2023-04-12T20:34:27.950Z,13.30
2023-04-12T20:36:56.250Z,13.10
2023-04-12T20:39:24.885Z,13.00
2023-04-12T20:41:55.296Z,11.90
2023-04-12T20:44:23.502Z,13.00
2023-04-12T20:46:52.835Z,13.50
2023-04-12T20:49:21.548Z,10.90
2023-04-12T20:51:49.960Z,12.60
2023-04-12T20:54:19.865Z,12.00
2023-04-12T20:56:47.958Z,11.30
2023-04-12T20:59:21.858Z,13.70
2023-04-12T21:01:51.457Z,10.50
2023-04-12T21:04:20.531Z,13.00
2023-04-12T21:06:50.534Z,12.30
2023-04-12T21:09:18.770Z,13.40
2023-04-12T21:11:47.082Z,15.80
2023-04-12T21:14:22.062Z,13.10
2023-04-12T21:16:51.235Z,11.40
2023-04-12T21:19:19.329Z,14.20
2023-04-12T21:21:47.653Z,11.40
2023-04-12T21:24:16.359Z,13.70
2023-04-12T21:26:45.194Z,11.40
2023-04-12T21:36:54.281Z,14.90
2023-04-12T21:39:22.371Z,12.70
2023-04-12T21:41:50.554Z,12.90
2023-04-12T21:44:19.939Z,11.30
2023-04-12T21:46:48.070Z,14.40
2023-04-12T21:49:16.564Z,14.40
2023-04-12T21:51:46.860Z,11.40
2023-04-12T21:54:15.751Z,12.10
2023-04-12T21:56:44.322Z,12.80
2023-04-12T21:59:12.626Z,14.50
2023-04-12T22:01:42.619Z,12.70
2023-04-12T22:04:12.077Z,16.40
2023-04-12T22:06:44.483Z,15.20
2023-04-12T22:09:12.986Z,14.20
2023-04-12T22:11:41.471Z,16.00
2023-04-12T22:14:15.616Z,15.60
2023-04-12T22:16:45.381Z,14.20
2023-04-12T22:19:13.471Z,13.70
2023-04-12T22:21:42.551Z,14.80
2023-04-12T22:24:10.859Z,14.50
2023-04-12T22:26:38.924Z,15.20
2023-04-12T22:29:08.107Z,17.10
2023-04-12T22:31:38.478Z,12.70
2023-04-12T22:34:06.561Z,15.00
2023-04-12T22:36:42.364Z,19.20
2023-04-12T22:39:10.763Z,16.70
2023-04-12T22:41:39.049Z,14.10
2023-04-12T22:44:09.412Z,13.40
2023-04-12T22:46:39.341Z,15.10
2023-04-12T22:49:07.836Z,14.70
2023-04-12T22:51:36.637Z,13.50
2023-04-12T22:54:06.296Z,17.00
2023-04-12T22:56:41.777Z,13.30
2023-04-12T22:59:10.572Z,14.80
2023-04-12T23:01:38.892Z,13.90
2023-04-12T23:04:09.707Z,14.20
2023-04-12T23:06:40.260Z,14.40
2023-04-12T23:09:10.504Z,14.90
2023-04-12T23:11:39.942Z,16.70
2023-04-12T23:14:17.710Z,13.20
2023-04-12T23:16:46.370Z,13.60
2023-04-12T23:19:14.943Z,14.00
2023-04-12T23:21:43.470Z,13.70
2023-04-12T23:24:15.432Z,18.50
2023-04-12T23:26:45.443Z,16.40
2023-04-12T23:29:13.819Z,13.90
2023-04-12T23:31:45.518Z,13.00
2023-04-12T23:34:16.540Z,13.90
2023-04-12T23:36:44.651Z,13.70
2023-04-12T23:39:12.707Z,13.70
2023-04-12T23:41:42.074Z,12.30
2023-04-12T23:44:12.058Z,13.20
2023-04-12T23:46:43.088Z,13.50
2023-04-12T23:49:12.320Z,13.70
2023-04-12T23:51:47.924Z,13.40
2023-04-12T23:54:19.571Z,12.50
2023-04-12T23:56:47.825Z,13.60
2023-04-12T23:59:22.370Z,11.40
